sensor_id;sensor_type;location;lat;lon;timestamp;P1;durP1;ratioP1;P2;durP2;ratioP2
7471;SDS011;3777;48.722;8.110;2023-09-07T00:01:31;6.70;;;6.00;;
7471;SDS011;3777;48.722;8.110;2023-09-07T00:03:58;9.27;;;6.23;;
7471;SDS011;3777;48.722;8.110;2023-09-07T00:06:25;6.63;;;5.80;;
7471;SDS011;3777;48.722;8.110;2023-09-07T00:08:52;9.97;;;6.23;;
7471;SDS011;3777;48.722;8.110;2023-09-07T00:11:19;6.23;;;5.63;;
7471;SDS011;3777;48.722;8.110;2023-09-07T00:13:46;6.70;;;6.03;;
7471;SDS011;3777;48.722;8.110;2023-09-07T00:16:14;7.07;;;6.37;;
7471;SDS011;3777;48.722;8.110;2023-09-07T00:18:41;6.27;;;5.67;;
7471;SDS011;3777;48.722;8.110;2023-09-07T00:21:08;6.90;;;6.10;;
7471;SDS011;3777;48.722;8.110;2023-09-07T00:23:35;7.33;;;6.13;;
7471;SDS011;3777;48.722;8.110;2023-09-07T00:26:02;8.77;;;6.33;;
7471;SDS011;3777;48.722;8.110;2023-09-07T00:28:29;7.50;;;6.70;;
7471;SDS011;3777;48.722;8.110;2023-09-07T00:30:56;7.67;;;6.87;;
7471;SDS011;3777;48.722;8.110;2023-09-07T00:33:24;9.20;;;6.83;;
7471;SDS011;3777;48.722;8.110;2023-09-07T00:35:51;9.53;;;6.67;;
7471;SDS011;3777;48.722;8.110;2023-09-07T00:38:18;7.10;;;6.50;;
7471;SDS011;3777;48.722;8.110;2023-09-07T00:40:45;7.10;;;6.37;;
7471;SDS011;3777;48.722;8.110;2023-09-07T00:43:12;7.60;;;6.80;;
7471;SDS011;3777;48.722;8.110;2023-09-07T00:45:39;9.30;;;6.77;;
7471;SDS011;3777;48.722;8.110;2023-09-07T00:48:07;7.23;;;6.50;;
7471;SDS011;3777;48.722;8.110;2023-09-07T00:50:35;7.20;;;6.50;;
7471;SDS011;3777;48.722;8.110;2023-09-07T00:53:03;8.33;;;7.30;;
7471;SDS011;3777;48.722;8.110;2023-09-07T00:55:32;7.73;;;6.73;;
7471;SDS011;3777;48.722;8.110;2023-09-07T00:58:00;9.43;;;7.03;;
7471;SDS011;3777;48.722;8.110;2023-09-07T01:00:28;7.80;;;6.50;;
7471;SDS011;3777;48.722;8.110;2023-09-07T01:02:55;7.57;;;6.80;;
7471;SDS011;3777;48.722;8.110;2023-09-07T01:05:24;7.63;;;6.43;;
7471;SDS011;3777;48.722;8.110;2023-09-07T01:08:00;8.83;;;6.87;;
7471;SDS011;3777;48.722;8.110;2023-09-07T01:10:36;7.50;;;6.70;;
7471;SDS011;3777;48.722;8.110;2023-09-07T01:13:03;10.40;;;7.47;;
7471;SDS011;3777;48.722;8.110;2023-09-07T01:15:30;8.20;;;7.43;;
7471;SDS011;3777;48.722;8.110;2023-09-07T01:17:57;8.13;;;7.33;;
7471;SDS011;3777;48.722;8.110;2023-09-07T01:20:24;7.97;;;7.17;;
7471;SDS011;3777;48.722;8.110;2023-09-07T01:22:54;8.20;;;7.40;;
7471;SDS011;3777;48.722;8.110;2023-09-07T01:25:22;8.20;;;7.37;;
7471;SDS011;3777;48.722;8.110;2023-09-07T01:27:49;8.60;;;7.47;;
7471;SDS011;3777;48.722;8.110;2023-09-07T01:30:17;7.87;;;7.17;;
7471;SDS011;3777;48.722;8.110;2023-09-07T01:32:44;7.53;;;6.83;;
7471;SDS011;3777;48.722;8.110;2023-09-07T01:35:11;8.07;;;7.07;;
7471;SDS011;3777;48.722;8.110;2023-09-07T01:37:42;9.13;;;7.47;;
7471;SDS011;3777;48.722;8.110;2023-09-07T01:40:10;8.43;;;7.60;;
7471;SDS011;3777;48.722;8.110;2023-09-07T01:42:37;9.50;;;7.43;;
7471;SDS011;3777;48.722;8.110;2023-09-07T01:45:04;8.57;;;7.77;;
7471;SDS011;3777;48.722;8.110;2023-09-07T01:47:32;9.50;;;7.93;;
7471;SDS011;3777;48.722;8.110;2023-09-07T01:49:59;8.30;;;7.33;;
7471;SDS011;3777;48.722;8.110;2023-09-07T01:52:26;10.07;;;7.73;;
7471;SDS011;3777;48.722;8.110;2023-09-07T01:54:53;8.30;;;7.27;;
7471;SDS011;3777;48.722;8.110;2023-09-07T01:57:23;8.67;;;7.70;;
7471;SDS011;3777;48.722;8.110;2023-09-07T01:59:50;8.10;;;7.30;;
7471;SDS011;3777;48.722;8.110;2023-09-07T02:02:17;7.70;;;6.90;;
7471;SDS011;3777;48.722;8.110;2023-09-07T02:04:44;10.00;;;7.57;;
7471;SDS011;3777;48.722;8.110;2023-09-07T02:07:11;7.70;;;7.00;;
7471;SDS011;3777;48.722;8.110;2023-09-07T02:09:39;8.30;;;7.50;;
7471;SDS011;3777;48.722;8.110;2023-09-07T02:12:07;8.60;;;7.80;;
7471;SDS011;3777;48.722;8.110;2023-09-07T02:14:37;8.87;;;7.90;;
7471;SDS011;3777;48.722;8.110;2023-09-07T02:17:04;8.37;;;7.57;;
7471;SDS011;3777;48.722;8.110;2023-09-07T02:19:31;8.30;;;7.50;;
7471;SDS011;3777;48.722;8.110;2023-09-07T02:21:58;7.83;;;7.03;;
7471;SDS011;3777;48.722;8.110;2023-09-07T02:24:25;8.10;;;7.30;;
7471;SDS011;3777;48.722;8.110;2023-09-07T02:26:52;8.07;;;7.03;;
7471;SDS011;3777;48.722;8.110;2023-09-07T02:29:19;7.97;;;7.17;;
7471;SDS011;3777;48.722;8.110;2023-09-07T02:31:47;9.97;;;7.30;;
7471;SDS011;3777;48.722;8.110;2023-09-07T02:34:14;8.43;;;7.07;;
7471;SDS011;3777;48.722;8.110;2023-09-07T02:36:41;8.47;;;7.50;;
7471;SDS011;3777;48.722;8.110;2023-09-07T02:39:08;7.87;;;7.07;;
7471;SDS011;3777;48.722;8.110;2023-09-07T02:41:36;8.47;;;7.30;;
7471;SDS011;3777;48.722;8.110;2023-09-07T02:44:04;8.17;;;7.27;;
7471;SDS011;3777;48.722;8.110;2023-09-07T02:46:31;8.93;;;7.37;;
7471;SDS011;3777;48.722;8.110;2023-09-07T02:48:59;8.23;;;7.30;;
7471;SDS011;3777;48.722;8.110;2023-09-07T02:51:26;8.40;;;7.20;;
7471;SDS011;3777;48.722;8.110;2023-09-07T02:53:53;7.80;;;7.03;;
7471;SDS011;3777;48.722;8.110;2023-09-07T02:56:23;7.83;;;6.83;;
7471;SDS011;3777;48.722;8.110;2023-09-07T02:58:51;8.27;;;7.50;;
7471;SDS011;3777;48.722;8.110;2023-09-07T03:01:18;7.67;;;6.83;;
7471;SDS011;3777;48.722;8.110;2023-09-07T03:03:46;7.70;;;6.87;;
7471;SDS011;3777;48.722;8.110;2023-09-07T03:06:15;8.33;;;7.33;;
7471;SDS011;3777;48.722;8.110;2023-09-07T03:08:42;8.03;;;6.40;;
7471;SDS011;3777;48.722;8.110;2023-09-07T03:11:10;6.70;;;6.10;;
7471;SDS011;3777;48.722;8.110;2023-09-07T03:13:37;7.97;;;6.60;;
7471;SDS011;3777;48.722;8.110;2023-09-07T03:16:04;8.80;;;6.70;;
7471;SDS011;3777;48.722;8.110;2023-09-07T03:18:32;7.03;;;6.43;;
7471;SDS011;3777;48.722;8.110;2023-09-07T03:21:00;8.57;;;7.57;;
7471;SDS011;3777;48.722;8.110;2023-09-07T03:23:29;8.53;;;7.00;;
7471;SDS011;3777;48.722;8.110;2023-09-07T03:25:57;8.33;;;7.27;;
7471;SDS011;3777;48.722;8.110;2023-09-07T03:28:24;8.30;;;7.03;;
7471;SDS011;3777;48.722;8.110;2023-09-07T03:30:51;7.90;;;7.10;;
7471;SDS011;3777;48.722;8.110;2023-09-07T03:33:19;7.13;;;6.43;;
7471;SDS011;3777;48.722;8.110;2023-09-07T03:35:46;7.57;;;6.87;;
7471;SDS011;3777;48.722;8.110;2023-09-07T03:38:13;8.53;;;7.00;;
7471;SDS011;3777;48.722;8.110;2023-09-07T03:40:41;7.33;;;6.57;;
7471;SDS011;3777;48.722;8.110;2023-09-07T03:43:09;7.23;;;6.23;;
7471;SDS011;3777;48.722;8.110;2023-09-07T03:45:36;7.53;;;6.73;;
7471;SDS011;3777;48.722;8.110;2023-09-07T03:48:03;6.83;;;6.13;;
7471;SDS011;3777;48.722;8.110;2023-09-07T03:50:31;6.97;;;6.37;;
7471;SDS011;3777;48.722;8.110;2023-09-07T03:52:58;7.50;;;6.40;;
7471;SDS011;3777;48.722;8.110;2023-09-07T03:55:24;7.40;;;6.70;;
7471;SDS011;3777;48.722;8.110;2023-09-07T03:57:53;7.20;;;6.57;;
7471;SDS011;3777;48.722;8.110;2023-09-07T04:00:20;7.30;;;6.60;;
7471;SDS011;3777;48.722;8.110;2023-09-07T04:02:49;7.63;;;6.83;;
7471;SDS011;3777;48.722;8.110;2023-09-07T04:05:16;8.03;;;7.30;;
7471;SDS011;3777;48.722;8.110;2023-09-07T04:07:43;8.57;;;7.77;;
7471;SDS011;3777;48.722;8.110;2023-09-07T04:10:11;10.33;;;9.17;;
7471;SDS011;3777;48.722;8.110;2023-09-07T04:12:38;8.50;;;7.70;;
7471;SDS011;3777;48.722;8.110;2023-09-07T04:15:07;9.23;;;8.40;;
7471;SDS011;3777;48.722;8.110;2023-09-07T04:17:34;8.53;;;7.53;;
7471;SDS011;3777;48.722;8.110;2023-09-07T04:20:06;9.63;;;8.63;;
7471;SDS011;3777;48.722;8.110;2023-09-07T04:22:34;9.07;;;8.17;;
7471;SDS011;3777;48.722;8.110;2023-09-07T04:25:01;8.27;;;7.47;;
7471;SDS011;3777;48.722;8.110;2023-09-07T04:27:28;8.67;;;7.87;;
7471;SDS011;3777;48.722;8.110;2023-09-07T04:29:56;8.27;;;7.43;;
7471;SDS011;3777;48.722;8.110;2023-09-07T04:32:24;9.17;;;8.27;;
7471;SDS011;3777;48.722;8.110;2023-09-07T04:34:54;8.83;;;7.93;;
7471;SDS011;3777;48.722;8.110;2023-09-07T04:37:22;8.20;;;7.40;;
7471;SDS011;3777;48.722;8.110;2023-09-07T04:39:50;10.80;;;8.70;;
7471;SDS011;3777;48.722;8.110;2023-09-07T04:42:18;11.23;;;8.67;;
7471;SDS011;3777;48.722;8.110;2023-09-07T04:44:45;9.77;;;8.77;;
7471;SDS011;3777;48.722;8.110;2023-09-07T04:47:12;10.70;;;8.80;;
7471;SDS011;3777;48.722;8.110;2023-09-07T04:49:41;10.37;;;9.10;;
7471;SDS011;3777;48.722;8.110;2023-09-07T04:52:08;10.97;;;9.80;;
7471;SDS011;3777;48.722;8.110;2023-09-07T04:54:35;12.17;;;10.47;;
7471;SDS011;3777;48.722;8.110;2023-09-07T04:57:02;10.43;;;9.33;;
7471;SDS011;3777;48.722;8.110;2023-09-07T04:59:30;9.30;;;8.37;;
7471;SDS011;3777;48.722;8.110;2023-09-07T05:01:58;9.07;;;8.27;;
7471;SDS011;3777;48.722;8.110;2023-09-07T05:04:27;9.00;;;8.10;;
7471;SDS011;3777;48.722;8.110;2023-09-07T05:06:57;9.40;;;8.50;;
7471;SDS011;3777;48.722;8.110;2023-09-07T05:09:24;8.57;;;7.77;;
7471;SDS011;3777;48.722;8.110;2023-09-07T05:11:53;8.47;;;7.67;;
7471;SDS011;3777;48.722;8.110;2023-09-07T05:14:20;8.50;;;7.70;;
7471;SDS011;3777;48.722;8.110;2023-09-07T05:16:47;7.87;;;6.93;;
7471;SDS011;3777;48.722;8.110;2023-09-07T05:19:14;8.03;;;7.23;;
7471;SDS011;3777;48.722;8.110;2023-09-07T05:21:41;8.07;;;7.37;;
7471;SDS011;3777;48.722;8.110;2023-09-07T05:24:09;12.83;;;7.07;;
7471;SDS011;3777;48.722;8.110;2023-09-07T05:26:39;8.57;;;7.67;;
7471;SDS011;3777;48.722;8.110;2023-09-07T05:29:06;8.10;;;7.30;;
7471;SDS011;3777;48.722;8.110;2023-09-07T05:31:33;7.47;;;6.77;;
7471;SDS011;3777;48.722;8.110;2023-09-07T05:34:00;8.87;;;7.97;;
7471;SDS011;3777;48.722;8.110;2023-09-07T05:36:27;9.13;;;8.23;;
7471;SDS011;3777;48.722;8.110;2023-09-07T05:38:55;9.40;;;8.43;;
7471;SDS011;3777;48.722;8.110;2023-09-07T05:41:24;10.70;;;9.60;;
7471;SDS011;3777;48.722;8.110;2023-09-07T05:43:51;10.40;;;8.80;;
7471;SDS011;3777;48.722;8.110;2023-09-07T05:46:18;9.43;;;8.43;;
7471;SDS011;3777;48.722;8.110;2023-09-07T05:48:45;9.10;;;8.27;;
7471;SDS011;3777;48.722;8.110;2023-09-07T05:51:12;9.90;;;8.57;;
7471;SDS011;3777;48.722;8.110;2023-09-07T05:53:40;9.93;;;8.93;;
7471;SDS011;3777;48.722;8.110;2023-09-07T05:56:07;10.23;;;9.20;;
7471;SDS011;3777;48.722;8.110;2023-09-07T05:58:35;11.17;;;10.07;;
7471;SDS011;3777;48.722;8.110;2023-09-07T06:01:02;13.77;;;10.00;;
7471;SDS011;3777;48.722;8.110;2023-09-07T06:03:30;11.13;;;10.03;;
7471;SDS011;3777;48.722;8.110;2023-09-07T06:05:58;11.67;;;10.57;;
7471;SDS011;3777;48.722;8.110;2023-09-07T06:08:25;11.90;;;10.40;;
7471;SDS011;3777;48.722;8.110;2023-09-07T06:10:53;11.60;;;10.33;;
7471;SDS011;3777;48.722;8.110;2023-09-07T06:13:19;11.20;;;9.70;;
7471;SDS011;3777;48.722;8.110;2023-09-07T06:15:48;11.20;;;10.10;;
7471;SDS011;3777;48.722;8.110;2023-09-07T06:18:15;10.77;;;9.77;;
7471;SDS011;3777;48.722;8.110;2023-09-07T06:20:42;10.47;;;9.37;;
7471;SDS011;3777;48.722;8.110;2023-09-07T06:23:09;9.90;;;8.90;;
7471;SDS011;3777;48.722;8.110;2023-09-07T06:25:36;10.33;;;9.33;;
7471;SDS011;3777;48.722;8.110;2023-09-07T06:28:03;10.13;;;9.13;;
7471;SDS011;3777;48.722;8.110;2023-09-07T06:30:31;10.63;;;9.53;;
7471;SDS011;3777;48.722;8.110;2023-09-07T06:32:59;10.20;;;9.20;;
7471;SDS011;3777;48.722;8.110;2023-09-07T06:35:26;13.77;;;9.03;;
7471;SDS011;3777;48.722;8.110;2023-09-07T06:37:56;10.13;;;8.40;;
7471;SDS011;3777;48.722;8.110;2023-09-07T06:40:23;8.83;;;7.93;;
7471;SDS011;3777;48.722;8.110;2023-09-07T06:42:51;8.93;;;8.10;;
7471;SDS011;3777;48.722;8.110;2023-09-07T06:45:18;7.87;;;7.10;;
7471;SDS011;3777;48.722;8.110;2023-09-07T06:47:48;8.80;;;7.90;;
7471;SDS011;3777;48.722;8.110;2023-09-07T06:50:17;9.53;;;8.40;;
7471;SDS011;3777;48.722;8.110;2023-09-07T06:52:44;9.20;;;7.60;;
7471;SDS011;3777;48.722;8.110;2023-09-07T06:55:11;7.77;;;7.07;;
7471;SDS011;3777;48.722;8.110;2023-09-07T06:57:38;7.17;;;6.43;;
7471;SDS011;3777;48.722;8.110;2023-09-07T07:00:05;8.13;;;7.20;;
7471;SDS011;3777;48.722;8.110;2023-09-07T07:02:33;8.03;;;6.90;;
7471;SDS011;3777;48.722;8.110;2023-09-07T07:05:00;8.10;;;7.30;;
7471;SDS011;3777;48.722;8.110;2023-09-07T07:07:29;8.60;;;7.60;;
7471;SDS011;3777;48.722;8.110;2023-09-07T07:09:56;10.13;;;7.73;;
7471;SDS011;3777;48.722;8.110;2023-09-07T07:12:23;9.87;;;7.23;;
7471;SDS011;3777;48.722;8.110;2023-09-07T07:14:51;8.10;;;6.77;;
7471;SDS011;3777;48.722;8.110;2023-09-07T07:17:18;10.30;;;7.13;;
7471;SDS011;3777;48.722;8.110;2023-09-07T07:19:45;8.07;;;6.80;;
7471;SDS011;3777;48.722;8.110;2023-09-07T07:22:12;8.27;;;6.83;;
7471;SDS011;3777;48.722;8.110;2023-09-07T07:24:40;6.50;;;5.87;;
7471;SDS011;3777;48.722;8.110;2023-09-07T07:27:08;7.67;;;6.87;;
7471;SDS011;3777;48.722;8.110;2023-09-07T07:29:36;7.10;;;5.93;;
7471;SDS011;3777;48.722;8.110;2023-09-07T07:32:03;6.63;;;6.03;;
7471;SDS011;3777;48.722;8.110;2023-09-07T07:34:30;8.05;;;6.13;;
7471;SDS011;3777;48.722;8.110;2023-09-07T07:36:57;7.32;;;5.97;;
7471;SDS011;3777;48.722;8.110;2023-09-07T07:39:24;6.35;;;5.75;;
7471;SDS011;3777;48.722;8.110;2023-09-07T07:41:55;7.82;;;6.53;;
7471;SDS011;3777;48.722;8.110;2023-09-07T07:44:23;6.10;;;5.50;;
7471;SDS011;3777;48.722;8.110;2023-09-07T07:46:49;6.65;;;5.93;;
7471;SDS011;3777;48.722;8.110;2023-09-07T07:49:16;6.70;;;5.90;;
7471;SDS011;3777;48.722;8.110;2023-09-07T07:51:43;7.18;;;5.57;;
7471;SDS011;3777;48.722;8.110;2023-09-07T07:54:10;6.53;;;5.93;;
7471;SDS011;3777;48.722;8.110;2023-09-07T07:56:38;8.73;;;5.80;;
7471;SDS011;3777;48.722;8.110;2023-09-07T07:59:07;7.60;;;6.03;;
7471;SDS011;3777;48.722;8.110;2023-09-07T08:01:34;6.72;;;6.07;;
7471;SDS011;3777;48.722;8.110;2023-09-07T08:04:01;7.18;;;5.78;;
7471;SDS011;3777;48.722;8.110;2023-09-07T08:06:28;6.03;;;5.50;;
7471;SDS011;3777;48.722;8.110;2023-09-07T08:08:55;6.45;;;5.43;;
7471;SDS011;3777;48.722;8.110;2023-09-07T08:11:22;5.85;;;5.25;;
7471;SDS011;3777;48.722;8.110;2023-09-07T08:13:50;5.35;;;4.82;;
7471;SDS011;3777;48.722;8.110;2023-09-07T08:16:19;5.63;;;4.50;;
7471;SDS011;3777;48.722;8.110;2023-09-07T08:18:46;5.18;;;4.68;;
7471;SDS011;3777;48.722;8.110;2023-09-07T08:21:13;5.88;;;5.20;;
7471;SDS011;3777;48.722;8.110;2023-09-07T08:23:40;5.10;;;4.60;;
7471;SDS011;3777;48.722;8.110;2023-09-07T08:26:07;5.05;;;4.55;;
7471;SDS011;3777;48.722;8.110;2023-09-07T08:28:35;7.13;;;5.38;;
7471;SDS011;3777;48.722;8.110;2023-09-07T08:31:02;5.10;;;4.63;;
7471;SDS011;3777;48.722;8.110;2023-09-07T08:33:31;5.60;;;5.10;;
7471;SDS011;3777;48.722;8.110;2023-09-07T08:36:05;6.05;;;5.05;;
7471;SDS011;3777;48.722;8.110;2023-09-07T08:38:33;7.50;;;5.35;;
7471;SDS011;3777;48.722;8.110;2023-09-07T08:41:02;6.32;;;4.32;;
7471;SDS011;3777;48.722;8.110;2023-09-07T08:43:32;4.75;;;4.25;;
7471;SDS011;3777;48.722;8.110;2023-09-07T08:46:04;5.25;;;4.75;;
7471;SDS011;3777;48.722;8.110;2023-09-07T08:48:36;6.15;;;4.70;;
7471;SDS011;3777;48.722;8.110;2023-09-07T08:51:04;5.03;;;4.60;;
7471;SDS011;3777;48.722;8.110;2023-09-07T08:53:32;5.00;;;4.32;;
7471;SDS011;3777;48.722;8.110;2023-09-07T08:56:01;6.30;;;4.35;;
7471;SDS011;3777;48.722;8.110;2023-09-07T08:58:28;5.18;;;4.10;;
7471;SDS011;3777;48.722;8.110;2023-09-07T09:00:57;4.63;;;4.22;;
7471;SDS011;3777;48.722;8.110;2023-09-07T09:03:24;5.10;;;4.32;;
7471;SDS011;3777;48.722;8.110;2023-09-07T09:05:54;6.35;;;4.38;;
7471;SDS011;3777;48.722;8.110;2023-09-07T09:08:22;4.07;;;3.72;;
7471;SDS011;3777;48.722;8.110;2023-09-07T09:10:58;8.40;;;4.13;;
7471;SDS011;3777;48.722;8.110;2023-09-07T09:13:28;4.43;;;3.80;;
7471;SDS011;3777;48.722;8.110;2023-09-07T09:15:55;4.57;;;3.55;;
7471;SDS011;3777;48.722;8.110;2023-09-07T09:18:22;4.47;;;3.70;;
7471;SDS011;3777;48.722;8.110;2023-09-07T09:20:51;6.13;;;3.58;;
7471;SDS011;3777;48.722;8.110;2023-09-07T09:23:19;4.10;;;3.70;;
7471;SDS011;3777;48.722;8.110;2023-09-07T09:25:47;7.13;;;3.40;;
7471;SDS011;3777;48.722;8.110;2023-09-07T09:28:14;4.03;;;3.05;;
7471;SDS011;3777;48.722;8.110;2023-09-07T09:30:41;4.18;;;3.53;;
7471;SDS011;3777;48.722;8.110;2023-09-07T09:33:09;5.30;;;3.50;;
7471;SDS011;3777;48.722;8.110;2023-09-07T09:35:36;5.07;;;3.53;;
7471;SDS011;3777;48.722;8.110;2023-09-07T09:38:03;7.35;;;3.50;;
7471;SDS011;3777;48.722;8.110;2023-09-07T09:40:32;3.50;;;3.20;;
7471;SDS011;3777;48.722;8.110;2023-09-07T09:43:01;5.03;;;3.17;;
7471;SDS011;3777;48.722;8.110;2023-09-07T09:45:29;4.32;;;3.70;;
7471;SDS011;3777;48.722;8.110;2023-09-07T09:47:56;4.88;;;3.15;;
7471;SDS011;3777;48.722;8.110;2023-09-07T09:50:25;4.13;;;3.10;;
7471;SDS011;3777;48.722;8.110;2023-09-07T09:52:53;3.97;;;2.78;;
7471;SDS011;3777;48.722;8.110;2023-09-07T09:55:20;3.70;;;3.20;;
7471;SDS011;3777;48.722;8.110;2023-09-07T09:57:49;3.40;;;3.10;;
7471;SDS011;3777;48.722;8.110;2023-09-07T10:00:16;3.75;;;3.13;;
7471;SDS011;3777;48.722;8.110;2023-09-07T10:02:54;5.03;;;3.10;;
7471;SDS011;3777;48.722;8.110;2023-09-07T10:05:26;4.80;;;3.13;;
7471;SDS011;3777;48.722;8.110;2023-09-07T10:07:59;4.47;;;3.13;;
7471;SDS011;3777;48.722;8.110;2023-09-07T10:10:31;3.45;;;2.97;;
7471;SDS011;3777;48.722;8.110;2023-09-07T10:13:02;5.32;;;3.30;;
7471;SDS011;3777;48.722;8.110;2023-09-07T10:15:30;4.28;;;3.10;;
7471;SDS011;3777;48.722;8.110;2023-09-07T10:18:08;5.38;;;3.10;;
7471;SDS011;3777;48.722;8.110;2023-09-07T10:23:33;3.80;;;3.38;;
7471;SDS011;3777;48.722;8.110;2023-09-07T10:26:02;5.38;;;3.15;;
7471;SDS011;3777;48.722;8.110;2023-09-07T10:28:31;4.50;;;3.03;;
7471;SDS011;3777;48.722;8.110;2023-09-07T10:30:59;4.20;;;2.90;;
7471;SDS011;3777;48.722;8.110;2023-09-07T10:33:29;4.53;;;3.35;;
7471;SDS011;3777;48.722;8.110;2023-09-07T10:35:56;5.07;;;3.13;;
7471;SDS011;3777;48.722;8.110;2023-09-07T10:38:24;3.47;;;3.13;;
7471;SDS011;3777;48.722;8.110;2023-09-07T10:40:54;3.45;;;3.00;;
7471;SDS011;3777;48.722;8.110;2023-09-07T10:43:25;4.35;;;3.33;;
7471;SDS011;3777;48.722;8.110;2023-09-07T10:45:54;3.53;;;3.20;;
7471;SDS011;3777;48.722;8.110;2023-09-07T10:48:22;3.75;;;3.33;;
7471;SDS011;3777;48.722;8.110;2023-09-07T10:50:50;3.55;;;3.22;;
7471;SDS011;3777;48.722;8.110;2023-09-07T10:53:24;4.93;;;3.28;;
7471;SDS011;3777;48.722;8.110;2023-09-07T10:55:52;3.83;;;3.05;;
7471;SDS011;3777;48.722;8.110;2023-09-07T10:58:26;3.20;;;2.90;;
7471;SDS011;3777;48.722;8.110;2023-09-07T11:00:55;4.20;;;2.88;;
7471;SDS011;3777;48.722;8.110;2023-09-07T11:03:24;3.17;;;2.88;;
7471;SDS011;3777;48.722;8.110;2023-09-07T11:05:52;4.45;;;2.97;;
7471;SDS011;3777;48.722;8.110;2023-09-07T11:08:21;5.05;;;3.20;;
7471;SDS011;3777;48.722;8.110;2023-09-07T11:10:49;4.35;;;3.20;;
7471;SDS011;3777;48.722;8.110;2023-09-07T11:13:17;6.35;;;3.47;;
7471;SDS011;3777;48.722;8.110;2023-09-07T11:15:44;3.80;;;3.08;;
7471;SDS011;3777;48.722;8.110;2023-09-07T11:18:12;3.58;;;3.20;;
7471;SDS011;3777;48.722;8.110;2023-09-07T11:20:39;6.00;;;3.38;;
7471;SDS011;3777;48.722;8.110;2023-09-07T11:23:08;5.78;;;3.28;;
7471;SDS011;3777;48.722;8.110;2023-09-07T11:25:35;4.28;;;3.15;;
7471;SDS011;3777;48.722;8.110;2023-09-07T11:28:03;3.67;;;3.03;;
7471;SDS011;3777;48.722;8.110;2023-09-07T11:30:30;5.00;;;3.55;;
7471;SDS011;3777;48.722;8.110;2023-09-07T11:33:01;5.60;;;3.50;;
7471;SDS011;3777;48.722;8.110;2023-09-07T11:35:30;4.38;;;3.50;;
7471;SDS011;3777;48.722;8.110;2023-09-07T11:37:59;6.28;;;3.90;;
7471;SDS011;3777;48.722;8.110;2023-09-07T11:40:26;6.38;;;3.38;;
7471;SDS011;3777;48.722;8.110;2023-09-07T11:42:53;4.22;;;3.53;;
7471;SDS011;3777;48.722;8.110;2023-09-07T11:45:20;3.88;;;3.40;;
7471;SDS011;3777;48.722;8.110;2023-09-07T11:47:47;4.68;;;3.75;;
7471;SDS011;3777;48.722;8.110;2023-09-07T11:50:16;3.78;;;3.47;;
7471;SDS011;3777;48.722;8.110;2023-09-07T11:52:44;4.28;;;3.60;;
7471;SDS011;3777;48.722;8.110;2023-09-07T11:55:13;4.57;;;3.50;;
7471;SDS011;3777;48.722;8.110;2023-09-07T11:57:40;4.88;;;3.63;;
7471;SDS011;3777;48.722;8.110;2023-09-07T12:00:08;4.20;;;3.90;;
7471;SDS011;3777;48.722;8.110;2023-09-07T12:02:36;4.13;;;3.33;;
7471;SDS011;3777;48.722;8.110;2023-09-07T12:05:04;3.88;;;3.58;;
7471;SDS011;3777;48.722;8.110;2023-09-07T12:07:33;4.15;;;3.70;;
7471;SDS011;3777;48.722;8.110;2023-09-07T12:10:01;4.45;;;3.80;;
7471;SDS011;3777;48.722;8.110;2023-09-07T12:12:28;4.13;;;3.70;;
7471;SDS011;3777;48.722;8.110;2023-09-07T12:14:55;6.28;;;4.10;;
7471;SDS011;3777;48.722;8.110;2023-09-07T12:17:22;6.10;;;3.70;;
7471;SDS011;3777;48.722;8.110;2023-09-07T12:19:49;4.45;;;3.80;;
7471;SDS011;3777;48.722;8.110;2023-09-07T12:22:16;4.25;;;3.85;;
7471;SDS011;3777;48.722;8.110;2023-09-07T12:24:44;4.45;;;4.05;;
7471;SDS011;3777;48.722;8.110;2023-09-07T12:27:12;4.63;;;3.90;;
7471;SDS011;3777;48.722;8.110;2023-09-07T12:29:39;5.40;;;4.18;;
7471;SDS011;3777;48.722;8.110;2023-09-07T12:32:06;4.32;;;3.92;;
7471;SDS011;3777;48.722;8.110;2023-09-07T12:34:33;8.20;;;4.13;;
7471;SDS011;3777;48.722;8.110;2023-09-07T12:37:00;4.93;;;4.45;;
7471;SDS011;3777;48.722;8.110;2023-09-07T12:39:29;5.53;;;4.20;;
7471;SDS011;3777;48.722;8.110;2023-09-07T12:41:56;4.65;;;4.25;;
7471;SDS011;3777;48.722;8.110;2023-09-07T12:44:24;4.72;;;4.10;;
7471;SDS011;3777;48.722;8.110;2023-09-07T12:46:51;5.32;;;4.60;;
7471;SDS011;3777;48.722;8.110;2023-09-07T12:49:18;6.43;;;4.20;;
7471;SDS011;3777;48.722;8.110;2023-09-07T12:51:45;5.78;;;4.70;;
7471;SDS011;3777;48.722;8.110;2023-09-07T12:54:13;8.27;;;4.38;;
7471;SDS011;3777;48.722;8.110;2023-09-07T12:56:40;7.80;;;4.70;;
7471;SDS011;3777;48.722;8.110;2023-09-07T12:59:07;6.95;;;4.50;;
7471;SDS011;3777;48.722;8.110;2023-09-07T13:01:35;5.85;;;4.63;;
7471;SDS011;3777;48.722;8.110;2023-09-07T13:04:02;4.95;;;4.25;;
7471;SDS011;3777;48.722;8.110;2023-09-07T13:06:30;6.65;;;4.60;;
7471;SDS011;3777;48.722;8.110;2023-09-07T13:08:57;5.50;;;4.72;;
7471;SDS011;3777;48.722;8.110;2023-09-07T13:11:24;5.05;;;4.55;;
7471;SDS011;3777;48.722;8.110;2023-09-07T13:13:51;5.22;;;4.55;;
7471;SDS011;3777;48.722;8.110;2023-09-07T13:16:18;5.25;;;4.78;;
7471;SDS011;3777;48.722;8.110;2023-09-07T13:18:46;5.40;;;4.90;;
7471;SDS011;3777;48.722;8.110;2023-09-07T13:21:13;9.13;;;5.05;;
7471;SDS011;3777;48.722;8.110;2023-09-07T13:23:40;6.82;;;4.50;;
7471;SDS011;3777;48.722;8.110;2023-09-07T13:26:08;6.18;;;4.70;;
7471;SDS011;3777;48.722;8.110;2023-09-07T13:28:35;6.78;;;4.75;;
7471;SDS011;3777;48.722;8.110;2023-09-07T13:31:02;5.05;;;4.57;;
7471;SDS011;3777;48.722;8.110;2023-09-07T13:33:29;6.07;;;4.85;;
7471;SDS011;3777;48.722;8.110;2023-09-07T13:35:57;6.43;;;4.97;;
7471;SDS011;3777;48.722;8.110;2023-09-07T13:38:24;5.32;;;4.82;;
7471;SDS011;3777;48.722;8.110;2023-09-07T13:40:51;6.15;;;4.88;;
7471;SDS011;3777;48.722;8.110;2023-09-07T13:43:18;7.93;;;4.88;;
7471;SDS011;3777;48.722;8.110;2023-09-07T13:45:46;5.88;;;5.18;;
7471;SDS011;3777;48.722;8.110;2023-09-07T13:48:13;8.20;;;5.18;;
7471;SDS011;3777;48.722;8.110;2023-09-07T13:50:40;6.93;;;4.80;;
7471;SDS011;3777;48.722;8.110;2023-09-07T13:53:09;7.65;;;5.20;;
7471;SDS011;3777;48.722;8.110;2023-09-07T13:55:36;5.68;;;5.13;;
7471;SDS011;3777;48.722;8.110;2023-09-07T13:58:05;7.82;;;5.50;;
7471;SDS011;3777;48.722;8.110;2023-09-07T14:00:32;8.48;;;5.32;;
7471;SDS011;3777;48.722;8.110;2023-09-07T14:02:59;5.90;;;4.95;;
7471;SDS011;3777;48.722;8.110;2023-09-07T14:05:25;5.68;;;4.95;;
7471;SDS011;3777;48.722;8.110;2023-09-07T14:07:52;5.65;;;5.07;;
7471;SDS011;3777;48.722;8.110;2023-09-07T14:10:21;5.75;;;5.25;;
7471;SDS011;3777;48.722;8.110;2023-09-07T14:12:48;6.30;;;5.22;;
7471;SDS011;3777;48.722;8.110;2023-09-07T14:15:15;6.30;;;5.00;;
7471;SDS011;3777;48.722;8.110;2023-09-07T14:17:42;5.65;;;4.95;;
7471;SDS011;3777;48.722;8.110;2023-09-07T14:20:09;5.82;;;5.32;;
7471;SDS011;3777;48.722;8.110;2023-09-07T14:22:37;7.35;;;5.40;;
7471;SDS011;3777;48.722;8.110;2023-09-07T14:25:04;5.85;;;5.20;;
7471;SDS011;3777;48.722;8.110;2023-09-07T14:27:34;5.60;;;5.10;;
7471;SDS011;3777;48.722;8.110;2023-09-07T14:30:00;7.00;;;5.32;;
7471;SDS011;3777;48.722;8.110;2023-09-07T14:32:27;10.05;;;5.25;;
7471;SDS011;3777;48.722;8.110;2023-09-07T14:34:54;6.35;;;4.97;;
7471;SDS011;3777;48.722;8.110;2023-09-07T14:37:21;5.82;;;5.32;;
7471;SDS011;3777;48.722;8.110;2023-09-07T14:39:48;6.95;;;5.20;;
7471;SDS011;3777;48.722;8.110;2023-09-07T14:42:15;6.07;;;5.10;;
7471;SDS011;3777;48.722;8.110;2023-09-07T14:44:45;8.27;;;5.45;;
7471;SDS011;3777;48.722;8.110;2023-09-07T14:47:13;5.60;;;5.10;;
7471;SDS011;3777;48.722;8.110;2023-09-07T14:49:40;5.72;;;5.10;;
7471;SDS011;3777;48.722;8.110;2023-09-07T14:52:07;7.00;;;5.10;;
7471;SDS011;3777;48.722;8.110;2023-09-07T14:54:36;6.15;;;5.55;;
7471;SDS011;3777;48.722;8.110;2023-09-07T14:57:03;6.25;;;5.57;;
7471;SDS011;3777;48.722;8.110;2023-09-07T14:59:30;5.47;;;5.05;;
7471;SDS011;3777;48.722;8.110;2023-09-07T15:01:59;8.02;;;5.28;;
7471;SDS011;3777;48.722;8.110;2023-09-07T15:04:26;6.28;;;4.93;;
7471;SDS011;3777;48.722;8.110;2023-09-07T15:06:52;5.97;;;5.38;;
7471;SDS011;3777;48.722;8.110;2023-09-07T15:09:20;6.13;;;5.25;;
7471;SDS011;3777;48.722;8.110;2023-09-07T15:11:47;7.10;;;5.18;;
7471;SDS011;3777;48.722;8.110;2023-09-07T15:14:14;7.38;;;5.00;;
7471;SDS011;3777;48.722;8.110;2023-09-07T15:16:41;5.43;;;4.93;;
7471;SDS011;3777;48.722;8.110;2023-09-07T15:19:09;6.25;;;5.10;;
7471;SDS011;3777;48.722;8.110;2023-09-07T15:21:36;6.22;;;5.35;;